Time;durP1;ratioP1;P1;durP2;ratioP2;P2;SDS_P1;SDS_P2;PMS_P1;PMS_P2;Temp;Humidity;BMP_temperature;BMP_pressure;BME280_temperature;BME280_humidity;BME280_pressure;Samples;Min_cycle;Max_cycle;Signal;HPM_P1;HPM_P2
2023/12/31 00:00:51;;;;;;;6.75;4.53;;;11.50;99.90;;;11.60;97.27;100087.72;4818836;29;20112;-73
2023/12/31 00:03:20;;;;;;;5.72;4.15;;;11.50;99.90;;;11.67;97.17;100062.84;4804071;29;20107;-75
2023/12/31 00:05:48;;;;;;;10.02;4.72;;;11.50;99.90;;;11.62;96.10;100092.97;4804056;29;20043;-75
2023/12/31 00:08:18;;;;;;;5.88;4.38;;;11.50;99.90;;;11.64;96.31;100099.09;4804123;29;20055;-74
2023/12/31 00:10:47;;;;;;;6.45;4.05;;;11.50;99.90;;;11.62;96.28;100077.97;4804179;29;20452;-75
2023/12/31 00:13:15;;;;;;;6.22;4.22;;;11.50;99.90;;;11.62;96.29;100074.44;4803999;29;20413;-74
2023/12/31 00:15:44;;;;;;;6.88;4.20;;;11.40;99.90;;;11.67;95.46;100083.19;4818277;29;20069;-75
2023/12/31 00:18:12;;;;;;;6.97;4.55;;;11.50;99.90;;;11.62;95.08;100093.84;4804000;29;20058;-75
2023/12/31 00:20:40;;;;;;;4.80;4.07;;;11.50;99.90;;;11.55;95.63;100062.22;4804000;29;20062;-74
2023/12/31 00:23:11;;;;;;;6.15;4.57;;;11.40;99.90;;;11.64;95.44;100062.91;4802823;29;20054;-75
2023/12/31 00:25:42;;;;;;;7.75;4.35;;;11.50;99.90;;;11.58;95.66;100086.00;4803904;29;20043;-75
2023/12/31 00:28:10;;;;;;;6.18;4.43;;;11.50;99.90;;;11.71;95.23;100053.94;4804107;29;20074;-75
2023/12/31 00:30:38;;;;;;;6.28;4.25;;;11.50;99.90;;;11.54;95.33;100061.34;4803786;29;20042;-74
2023/12/31 00:33:07;;;;;;;4.97;4.28;;;11.40;99.90;;;11.48;95.62;100005.88;4804190;29;20135;-75
2023/12/31 00:35:36;;;;;;;9.95;4.35;;;11.40;99.90;;;11.67;95.04;100024.94;4803837;29;20050;-74
2023/12/31 00:38:04;;;;;;;7.40;4.20;;;11.50;99.90;;;11.58;95.22;100030.38;4803864;29;20447;-74
2023/12/31 00:40:33;;;;;;;4.60;4.20;;;11.40;99.90;;;11.59;94.82;100037.44;4817983;29;20051;-74
2023/12/31 00:43:03;;;;;;;7.45;4.00;;;11.40;99.90;;;11.53;94.33;100027.84;4803985;29;20046;-74
2023/12/31 00:45:32;;;;;;;5.75;4.43;;;11.40;99.90;;;11.58;94.12;100033.03;4802797;29;20145;-75
2023/12/31 00:48:00;;;;;;;5.32;4.10;;;11.40;99.90;;;11.57;94.31;100007.47;4817676;29;20050;-75
2023/12/31 00:50:29;;;;;;;5.50;4.47;;;11.40;99.90;;;11.61;94.20;99987.94;4803971;29;20062;-75
2023/12/31 00:52:57;;;;;;;8.25;4.40;;;11.40;99.90;;;11.44;94.09;99996.25;4817691;29;20058;-73
2023/12/31 00:55:26;;;;;;;6.35;4.28;;;11.30;99.90;;;11.44;94.11;100006.84;4819612;29;20055;-75
2023/12/31 00:57:54;;;;;;;8.55;4.40;;;11.30;99.90;;;11.49;94.19;100004.97;4807378;29;20055;-72
2023/12/31 01:00:24;;;;;;;7.68;3.97;;;11.30;99.90;;;11.51;93.83;99992.56;4807381;29;20493;-74
2023/12/31 01:02:52;;;;;;;8.38;4.22;;;11.30;99.90;;;11.51;93.71;100012.88;4807270;29;20129;-72
2023/12/31 01:05:21;;;;;;;7.43;4.57;;;11.40;99.90;;;11.37;94.04;100020.25;4807483;29;20057;-76
2023/12/31 01:07:50;;;;;;;5.67;4.50;;;11.20;99.90;;;11.29;94.54;99969.22;4807271;29;20450;-74
2023/12/31 01:10:19;;;;;;;8.82;4.50;;;11.10;99.90;;;11.39;94.30;99995.50;4807131;29;20584;-75
2023/12/31 01:12:47;;;;;;;6.05;4.38;;;11.20;99.90;;;11.35;94.03;99972.63;4807064;29;20050;-74
2023/12/31 01:15:16;;;;;;;7.15;4.68;;;11.20;99.90;;;11.40;94.34;99977.84;4807023;29;20055;-76
2023/12/31 01:17:46;;;;;;;6.55;4.20;;;11.20;99.90;;;11.34;93.73;99972.66;4807094;29;20108;-75
2023/12/31 01:20:15;;;;;;;7.97;4.70;;;11.20;99.90;;;11.39;93.80;99971.66;4805819;29;20138;-73
2023/12/31 01:22:44;;;;;;;7.10;4.05;;;11.20;99.90;;;11.45;93.76;99976.81;4805597;29;20402;-74
2023/12/31 01:25:13;;;;;;;7.35;4.50;;;11.30;99.90;;;11.42;93.32;99926.56;4807092;29;20053;-75
2023/12/31 01:27:41;;;;;;;4.93;4.40;;;11.30;99.90;;;11.24;93.75;99919.06;4807048;29;20129;-74
2023/12/31 01:30:12;;;;;;;7.18;4.40;;;11.10;99.90;;;11.35;93.38;99927.63;4806936;29;20043;-74
2023/12/31 01:32:40;;;;;;;;;;;11.20;99.90;;;11.36;93.48;99918.75;4807113;29;20059;-75
2023/12/31 01:35:11;;;;;;;5.20;4.32;;;11.20;99.90;;;11.35;93.31;99948.81;4806720;29;20321;-75
2023/12/31 01:37:39;;;;;;;6.25;4.50;;;11.20;99.90;;;11.18;93.56;99932.44;4807291;29;20071;-74
2023/12/31 01:40:09;;;;;;;5.40;4.88;;;11.20;99.90;;;11.31;93.91;99910.06;4806667;29;20061;-74
2023/12/31 01:42:37;;;;;;;6.77;4.37;;;11.10;99.90;;;11.26;93.65;99911.06;4805521;29;20058;-74
2023/12/31 01:45:06;;;;;;;6.30;4.25;;;11.10;99.90;;;11.30;93.88;99881.88;4820485;29;20894;-75
2023/12/31 01:47:36;;;;;;;6.78;5.03;;;11.10;99.90;;;11.21;93.74;99919.13;4806491;29;20126;-75
2023/12/31 01:50:07;;;;;;;5.93;4.40;;;11.10;99.90;;;11.30;94.04;99878.34;4806548;29;20488;-75
2023/12/31 01:52:37;;;;;;;;;;;11.10;99.90;;;11.37;93.63;99878.16;4807420;29;20095;-74
2023/12/31 01:55:07;;;;;;;6.43;4.63;;;11.10;99.90;;;11.49;93.48;99871.69;4806575;29;19925;-74
2023/12/31 01:57:37;;;;;;;4.43;3.92;;;11.30;99.90;;;11.37;93.19;99877.28;4806448;29;20337;-76
2023/12/31 02:00:08;;;;;;;5.90;4.57;;;11.30;99.90;;;11.26;93.75;99954.31;4805108;29;20249;-77
2023/12/31 02:02:41;;;;;;;5.47;4.13;;;11.10;99.90;;;11.33;93.70;99876.50;4806561;29;20058;-74
2023/12/31 02:05:11;;;;;;;5.55;4.30;;;11.10;99.90;;;11.32;93.61;99858.00;4805745;29;20050;-74
2023/12/31 02:07:41;;;;;;;6.43;4.57;;;11.10;99.90;;;11.33;93.43;99910.03;4805645;29;20055;-75
2023/12/31 02:10:10;;;;;;;7.30;5.15;;;11.20;99.90;;;11.28;93.43;99849.28;4806926;29;20059;-75
2023/12/31 02:12:40;;;;;;;5.97;4.47;;;11.10;99.90;;;11.14;94.29;99848.72;4807205;29;20062;-74
2023/12/31 02:15:09;;;;;;;6.00;4.60;;;11.00;99.90;;;11.19;94.69;99862.69;4821013;29;20104;-73
2023/12/31 02:17:38;;;;;;;7.88;4.60;;;11.00;99.90;;;11.19;94.78;99848.63;4821032;29;20065;-72
2023/12/31 02:20:08;;;;;;;5.78;4.20;;;11.00;99.90;;;11.16;94.92;99833.66;4805226;29;20505;-72
2023/12/31 02:22:36;;;;;;;9.18;4.65;;;11.00;99.90;;;11.14;94.98;99838.13;4805267;29;20082;-72
2023/12/31 02:25:10;;;;;;;8.13;4.40;;;11.00;99.90;;;11.15;95.16;99800.16;4806462;29;20066;-72
2023/12/31 02:27:40;;;;;;;7.38;4.93;;;11.00;99.90;;;11.15;95.29;99813.38;4806527;29;20051;-72
2023/12/31 02:30:10;;;;;;;5.82;4.72;;;11.00;99.90;;;11.09;95.40;99792.34;4820127;29;20145;-73
2023/12/31 02:32:38;;;;;;;5.50;4.28;;;11.00;99.90;;;10.96;95.73;99795.31;4805993;29;20078;-73
2023/12/31 02:35:08;;;;;;;6.78;4.50;;;10.80;99.90;;;10.91;96.08;99792.81;4806440;29;20148;-72
2023/12/31 02:37:36;;;;;;;4.60;4.20;;;10.80;99.90;;;10.95;96.30;99798.88;4806216;29;20043;-72
2023/12/31 02:40:06;;;;;;;6.00;4.40;;;10.80;99.90;;;10.91;96.30;99782.22;4805984;29;20502;-72
2023/12/31 02:42:35;;;;;;;5.95;4.63;;;10.70;99.90;;;10.93;96.76;99813.94;4806504;29;20070;-72
2023/12/31 02:45:07;;;;;;;7.28;5.07;;;10.70;99.90;;;10.82;96.82;99758.59;4805908;29;20050;-72
2023/12/31 02:47:36;;;;;;;10.15;4.47;;;10.70;99.90;;;10.84;97.05;99748.88;4805832;29;20382;-72
2023/12/31 02:50:06;;;;;;;7.45;4.80;;;10.70;99.90;;;10.72;97.29;99755.31;4805849;29;20370;-72
2023/12/31 02:52:34;;;;;;;4.80;4.32;;;10.60;99.90;;;10.69;97.36;99743.94;4805783;29;20059;-73
2023/12/31 02:55:03;;;;;;;5.13;4.43;;;10.50;99.90;;;10.67;97.73;99728.13;4805795;29;20047;-73
2023/12/31 02:57:31;;;;;;;6.03;4.78;;;10.50;99.90;;;10.69;97.64;99744.81;4805792;29;20058;-73
2023/12/31 03:00:00;;;;;;;5.53;5.03;;;10.50;99.90;;;10.68;98.00;99721.91;4805579;29;20055;-73
2023/12/31 03:02:29;;;;;;;4.72;4.20;;;10.50;99.90;;;10.56;97.85;99727.50;4805823;29;20047;-72
2023/12/31 03:04:58;;;;;;;6.13;4.80;;;10.40;99.90;;;10.30;98.68;99710.50;4805757;29;20047;-73
2023/12/31 03:07:26;;;;;;;6.88;4.78;;;10.30;99.90;;;9.86;98.64;99608.38;4805714;29;20053;-73
2023/12/31 03:09:55;;;;;;;5.95;4.40;;;10.30;99.90;;;10.37;99.01;99693.59;4805648;29;20051;-72
2023/12/31 03:12:23;;;;;;;8.98;4.35;;;10.20;99.90;;;10.24;99.97;99686.84;4805348;29;20046;-73
2023/12/31 03:14:52;;;;;;;6.57;4.93;;;10.10;99.90;;;10.32;99.91;99685.75;4805299;29;20497;-72
2023/12/31 03:17:20;;;;;;;10.30;4.78;;;10.10;99.90;;;10.21;100.00;99676.31;4804871;29;20058;-73
2023/12/31 03:19:50;;;;;;;7.07;4.72;;;10.00;99.90;;;10.15;100.00;99671.16;4805112;29;20051;-72
2023/12/31 03:22:19;;;;;;;6.20;4.35;;;10.00;99.90;;;10.12;100.00;99665.97;4804128;29;20051;-73
2023/12/31 03:25:06;;;;;;;6.40;4.47;;;10.00;99.90;;;10.26;100.00;99653.31;4805432;29;20050;-73
2023/12/31 03:27:35;;;;;;;6.10;4.78;;;10.00;99.90;;;10.25;100.00;99652.44;4805252;29;20089;-72
2023/12/31 03:30:04;;;;;;;5.22;4.72;;;10.10;99.90;;;10.17;100.00;99645.59;4805001;29;20051;-72
2023/12/31 03:32:32;;;;;;;5.13;4.47;;;10.00;99.90;;;9.93;100.00;99596.78;4804850;29;20062;-73
2023/12/31 03:35:02;;;;;;;5.05;4.50;;;10.00;99.90;;;10.11;100.00;99632.50;4804979;29;20536;-72
2023/12/31 03:37:31;;;;;;;5.65;4.53;;;10.00;99.90;;;10.04;100.00;99627.31;4803893;29;20209;-72
2023/12/31 03:39:59;;;;;;;6.32;4.57;;;9.90;99.90;;;10.15;100.00;99629.78;4819004;29;20065;-73
2023/12/31 03:42:28;;;;;;;4.72;4.30;;;9.90;99.90;;;10.11;100.00;99606.09;4804776;29;20054;-73
2023/12/31 03:44:57;;;;;;;7.38;4.47;;;9.90;99.90;;;10.11;100.00;99614.00;4805053;29;20143;-73
2023/12/31 03:47:25;;;;;;;6.10;4.95;;;10.00;99.90;;;10.08;100.00;99585.00;4818911;29;20058;-72
2023/12/31 03:49:54;;;;;;;5.60;5.03;;;10.00;99.90;;;10.11;100.00;99600.81;4804604;29;20045;-70
2023/12/31 03:52:23;;;;;;;5.65;4.82;;;9.90;99.90;;;9.97;100.00;99586.13;4803641;29;20077;-72
2023/12/31 03:54:52;;;;;;;7.78;5.13;;;9.90;99.90;;;10.06;100.00;99595.63;4804856;29;20086;-72
2023/12/31 03:57:20;;;;;;;7.22;4.55;;;9.90;99.90;;;10.00;100.00;99574.63;4805044;29;20107;-72
2023/12/31 03:59:49;;;;;;;8.93;5.20;;;9.90;99.90;;;10.09;100.00;99561.19;4819069;29;20059;-73
2023/12/31 04:02:18;;;;;;;6.50;4.82;;;9.90;99.90;;;9.76;100.00;99510.03;4804584;29;20339;-72
2023/12/31 04:04:47;;;;;;;5.90;4.95;;;9.80;99.90;;;10.08;100.00;99526.91;4804645;29;20070;-73
2023/12/31 04:07:15;;;;;;;10.73;5.47;;;9.90;99.90;;;10.05;100.00;99514.63;4818635;29;20571;-73
2023/12/31 04:09:46;;;;;;;7.07;4.72;;;9.90;99.90;;;9.95;100.00;99507.81;4804301;29;20489;-71
2023/12/31 04:12:15;;;;;;;5.63;4.88;;;9.80;99.90;;;9.99;100.00;99510.34;4804709;29;20585;-72
2023/12/31 04:14:43;;;;;;;5.25;4.75;;;9.90;99.90;;;10.06;100.00;99505.81;4804327;29;20053;-72
2023/12/31 04:17:11;;;;;;;6.10;4.70;;;9.90;99.90;;;10.06;100.00;99505.81;4804875;29;20054;-73
2023/12/31 04:19:40;;;;;;;6.93;5.05;;;9.90;99.90;;;9.95;100.00;99516.59;4804395;29;20057;-71
2023/12/31 04:22:08;;;;;;;5.40;4.72;;;9.80;99.90;;;9.95;100.00;99492.84;4804350;29;20476;-72
2023/12/31 04:24:37;;;;;;;5.75;5.20;;;9.90;99.90;;;10.08;100.00;99500.47;4804691;29;20133;-72
2023/12/31 04:27:07;;;;;;;5.55;4.97;;;9.90;99.90;;;10.06;100.00;99487.31;4804401;29;20133;-72
2023/12/31 04:29:35;;;;;;;7.18;5.10;;;9.90;99.90;;;10.06;100.00;99475.88;4803936;29;20051;-72
2023/12/31 04:32:05;;;;;;;5.32;4.88;;;9.90;99.90;;;10.13;100.00;99488.91;4804421;29;20062;-71
2023/12/31 04:34:33;;;;;;;7.50;4.78;;;10.00;99.90;;;10.19;100.00;99487.91;4804603;29;20055;-71
2023/12/31 04:37:02;;;;;;;5.47;4.88;;;10.00;99.90;;;10.18;100.00;99471.16;4804725;29;20494;-72
2023/12/31 04:39:30;;;;;;;5.45;4.72;;;10.00;99.90;;;10.26;100.00;99453.34;4804601;29;20459;-72
2023/12/31 04:41:58;;;;;;;6.65;4.78;;;10.10;99.90;;;10.23;100.00;99469.28;4804375;29;20058;-72
2023/12/31 04:44:28;;;;;;;5.95;4.65;;;10.10;99.90;;;10.29;100.00;99457.69;4804845;29;20103;-71
2023/12/31 04:46:57;;;;;;;5.72;4.75;;;10.10;99.90;;;10.26;100.00;99445.41;4804297;29;20449;-72
2023/12/31 04:49:25;;;;;;;6.07;4.70;;;10.10;99.90;;;10.23;100.00;99434.94;4804258;29;20054;-72
2023/12/31 04:51:54;;;;;;;6.47;4.78;;;10.10;99.90;;;10.22;100.00;99435.84;4804695;29;20063;-72
2023/12/31 04:54:22;;;;;;;6.68;5.30;;;10.10;99.90;;;10.22;100.00;99453.50;4804606;29;20447;-72
2023/12/31 04:56:51;;;;;;;5.15;4.63;;;10.10;99.90;;;10.26;100.00;99436.66;4804567;29;20070;-72
2023/12/31 04:59:19;;;;;;;6.00;4.70;;;10.10;99.90;;;10.24;100.00;99425.25;4804565;29;20390;-72
2023/12/31 05:01:52;;;;;;;5.63;5.13;;;10.10;99.90;;;10.14;100.00;99411.41;4804454;29;20054;-72
2023/12/31 05:04:21;;;;;;;6.90;4.80;;;10.00;99.90;;;10.12;100.00;99407.06;4803555;29;20122;-72
2023/12/31 05:06:49;;;;;;;5.85;5.03;;;10.00;99.90;;;10.18;100.00;99401.63;4805287;29;20050;-71
2023/12/31 05:09:18;;;;;;;6.10;4.90;;;10.00;99.90;;;10.25;100.00;99403.19;4804576;29;20111;-72
2023/12/31 05:11:46;;;;;;;6.68;4.78;;;10.10;99.90;;;10.10;100.00;99422.09;4804662;29;20576;-72
2023/12/31 05:14:15;;;;;;;5.78;5.28;;;10.00;99.90;;;10.02;100.00;99393.22;4804332;29;20455;-72
2023/12/31 05:16:44;;;;;;;6.88;5.32;;;9.90;99.90;;;10.12;100.00;99381.53;4818257;29;20150;-72
2023/12/31 05:19:14;;;;;;;5.28;4.75;;;10.00;99.90;;;10.16;100.00;99393.75;4803846;29;20051;-71
2023/12/31 05:21:42;;;;;;;5.10;4.57;;;9.90;99.90;;;10.16;100.00;99392.88;4817957;29;20078;-71
2023/12/31 05:24:11;;;;;;;5.40;4.90;;;10.00;99.90;;;10.16;100.00;99371.75;4803979;29;20120;-72
2023/12/31 05:26:41;;;;;;;6.00;5.40;;;10.00;99.90;;;10.04;100.00;99360.53;4817455;29;20554;-72
2023/12/31 05:29:10;;;;;;;5.35;4.85;;;9.90;99.90;;;10.07;100.00;99377.22;4803611;29;20055;-72
2023/12/31 05:31:38;;;;;;;5.28;4.82;;;9.90;99.90;;;10.12;100.00;99360.41;4804110;29;20497;-71
2023/12/31 05:34:07;;;;;;;6.45;5.05;;;9.90;99.90;;;10.13;100.00;99354.19;4804291;29;20051;-73
2023/12/31 05:36:37;;;;;;;7.25;5.20;;;9.90;99.90;;;10.06;100.00;99355.25;4804970;29;20058;-72
2023/12/31 05:39:05;;;;;;;6.55;5.50;;;10.00;99.90;;;10.08;100.00;99347.25;4806099;29;20047;-73
2023/12/31 05:41:34;;;;;;;7.00;4.75;;;9.90;99.90;;;10.07;100.00;99358.72;4807163;29;20062;-73
2023/12/31 05:44:02;;;;;;;5.70;5.10;;;9.90;99.90;;;9.96;100.00;99341.41;4807454;29;20047;-73
2023/12/31 05:46:31;;;;;;;5.85;5.10;;;10.00;99.90;;;10.11;100.00;99318.16;4821428;29;20069;-73
2023/12/31 05:48:59;;;;;;;5.35;4.68;;;10.00;99.90;;;10.22;100.00;99319.59;4806816;29;20054;-73
2023/12/31 05:51:28;;;;;;;6.15;5.63;;;10.10;99.90;;;10.20;100.00;99344.34;4806938;29;20061;-73
2023/12/31 05:53:58;;;;;;;7.18;5.15;;;10.10;99.90;;;10.21;100.00;99314.34;4807314;29;20043;-74
2023/12/31 05:56:26;;;;;;;6.85;5.43;;;10.10;99.90;;;10.21;100.00;99351.34;4807124;29;20059;-73
2023/12/31 05:58:54;;;;;;;6.93;5.18;;;10.10;99.90;;;9.74;100.00;99226.72;4820683;29;20070;-73
2023/12/31 06:01:23;;;;;;;6.10;4.88;;;10.00;99.90;;;10.12;100.00;99310.22;4806596;29;20137;-74
2023/12/31 06:03:53;;;;;;;8.65;5.13;;;10.00;99.90;;;10.13;100.00;99293.44;4806581;29;20051;-73
2023/12/31 06:06:22;;;;;;;6.25;4.82;;;10.00;99.90;;;10.19;100.00;99324.09;4820592;29;20142;-74
2023/12/31 06:08:51;;;;;;;7.75;5.28;;;10.00;99.90;;;9.45;100.00;99191.44;4806506;29;20141;-73
2023/12/31 06:11:20;;;;;;;5.93;5.32;;;10.00;99.90;;;10.18;100.00;99311.81;4820383;29;20119;-73
2023/12/31 06:13:49;;;;;;;5.93;5.43;;;10.10;99.90;;;10.15;100.00;99303.94;4820378;29;20039;-72
2023/12/31 06:16:17;;;;;;;7.07;5.05;;;10.00;99.90;;;10.27;100.00;99290.41;4806464;29;20047;-75
2023/12/31 06:18:45;;;;;;;5.78;5.03;;;10.10;99.90;;;10.23;100.00;99320.47;4806240;29;20035;-72
2023/12/31 06:21:14;;;;;;;7.60;5.53;;;10.10;99.90;;;10.17;100.00;99271.31;4806219;29;20051;-71
2023/12/31 06:23:42;;;;;;;6.00;5.40;;;10.00;99.90;;;10.21;100.00;99274.72;4806170;29;20054;-71
2023/12/31 06:26:11;;;;;;;6.65;5.00;;;10.10;99.90;;;10.16;100.00;99264.31;4806166;29;20039;-72
2023/12/31 06:28:40;;;;;;;5.93;5.35;;;10.10;99.90;;;10.26;100.00;99283.41;4806239;29;20069;-73
2023/12/31 06:31:10;;;;;;;5.75;5.20;;;10.10;99.90;;;10.23;100.00;99275.53;4806484;29;20085;-73
2023/12/31 06:33:39;;;;;;;6.45;5.32;;;10.10;99.90;;;10.34;100.00;99244.38;4805844;29;20091;-71
2023/12/31 06:36:08;;;;;;;6.00;5.47;;;10.10;99.90;;;10.41;100.00;99248.59;4806068;29;20420;-72
2023/12/31 06:38:36;;;;;;;5.68;5.18;;;10.20;99.90;;;10.32;100.00;99255.00;4805955;29;20115;-72
2023/12/31 06:41:08;;;;;;;6.68;5.38;;;10.20;99.90;;;10.35;100.00;99246.13;4805798;29;20054;-73
2023/12/31 06:43:37;;;;;;;6.45;5.50;;;10.20;99.90;;;10.30;100.00;99270.03;4805962;29;20074;-72
2023/12/31 06:46:06;;;;;;;5.88;5.25;;;10.20;99.90;;;10.26;100.00;99230.56;4805726;29;20489;-73
2023/12/31 06:48:35;;;;;;;6.73;5.70;;;10.10;99.90;;;10.25;100.00;99242.00;4805861;29;20053;-73
2023/12/31 06:51:04;;;;;;;6.50;5.70;;;10.10;99.90;;;9.98;100.00;99201.41;4805957;29;20376;-72
2023/12/31 06:53:33;;;;;;;5.60;5.05;;;10.10;99.90;;;10.18;100.00;99232.56;4803686;29;20054;-74
2023/12/31 06:56:05;;;;;;;5.88;5.10;;;10.00;99.90;;;10.23;100.00;99223.56;4805720;29;20066;-73
2023/12/31 06:58:35;;;;;;;5.78;5.28;;;10.10;99.90;;;10.20;100.00;99236.00;4805713;29;20043;-73
2023/12/31 07:01:05;;;;;;;5.70;5.22;;;10.00;99.90;;;10.02;100.00;99176.63;4806155;29;20150;-72
2023/12/31 07:03:34;;;;;;;;;;;10.10;99.90;;;10.17;100.00;99199.09;4806294;29;20051;-72
2023/12/31 07:06:03;;;;;;;6.40;5.80;;;10.00;99.90;;;10.18;100.00;99190.28;4819835;29;19979;-73
2023/12/31 07:08:31;;;;;;;6.35;5.80;;;10.00;99.90;;;10.18;100.00;99203.50;4819477;29;20050;-72
2023/12/31 07:11:00;;;;;;;5.95;5.35;;;10.00;99.90;;;10.12;100.00;99180.78;4805627;29;20058;-72
2023/12/31 07:13:29;;;;;;;6.07;5.57;;;10.00;99.90;;;10.20;100.00;99205.16;4805362;29;20058;-72
2023/12/31 07:15:59;;;;;;;6.55;5.95;;;10.00;99.90;;;10.22;100.00;99170.78;4819348;29;20054;-72
2023/12/31 07:18:29;;;;;;;8.07;5.40;;;10.00;99.90;;;10.21;100.00;99195.47;4805280;29;20103;-74
2023/12/31 07:20:57;;;;;;;5.95;5.35;;;10.00;99.90;;;10.16;100.00;99177.13;4805742;29;20047;-73
2023/12/31 07:23:26;;;;;;;6.65;5.22;;;10.00;99.90;;;10.19;100.00;99187.59;4805091;29;20084;-72
2023/12/31 07:25:54;;;;;;;6.13;5.63;;;10.10;99.90;;;10.24;100.00;99198.88;4804101;29;20120;-74
2023/12/31 07:28:22;;;;;;;6.35;5.75;;;10.10;99.90;;;10.04;100.00;99182.72;4819264;29;20103;-73
2023/12/31 07:30:51;;;;;;;6.45;5.70;;;10.00;99.90;;;10.26;100.00;99181.19;4805268;29;20051;-73
2023/12/31 07:33:20;;;;;;;6.10;5.60;;;10.10;99.90;;;10.24;100.00;99182.19;4804926;29;20139;-73
2023/12/31 07:35:50;;;;;;;7.20;6.03;;;10.10;99.90;;;10.22;100.00;99162.88;4804977;29;20070;-74
2023/12/31 07:38:18;;;;;;;6.30;5.60;;;10.10;99.90;;;10.27;100.00;99171.50;4804975;29;20154;-74
2023/12/31 07:40:47;;;;;;;7.97;5.70;;;10.10;99.90;;;9.66;100.00;99054.47;4819106;29;20086;-73
2023/12/31 07:43:15;;;;;;;6.32;5.75;;;10.20;99.90;;;10.30;100.00;99164.34;4804844;29;20059;-73
2023/12/31 07:45:44;;;;;;;7.15;6.28;;;10.10;99.90;;;10.24;100.00;99138.09;4805086;29;20046;-73
2023/12/31 07:48:12;;;;;;;7.10;5.60;;;10.10;99.90;;;10.39;100.00;99148.22;4819005;29;20046;-73
2023/12/31 07:50:41;;;;;;;6.22;5.68;;;10.20;99.90;;;10.46;100.00;99154.16;4804760;29;20093;-73
2023/12/31 07:53:11;;;;;;;5.85;5.28;;;10.20;99.90;;;10.59;100.00;99166.06;4804679;29;20199;-75
2023/12/31 07:55:39;;;;;;;7.40;5.77;;;10.40;99.90;;;10.67;100.00;99151.69;4805392;29;20047;-75
2023/12/31 07:58:08;;;;;;;6.57;5.97;;;10.50;99.90;;;10.79;100.00;99147.78;4804642;29;20286;-74
2023/12/31 08:00:36;;;;;;;5.95;5.35;;;10.60;99.90;;;10.87;100.00;99136.06;4804877;29;20543;-74
2023/12/31 08:03:05;;;;;;;5.65;5.15;;;10.70;99.90;;;10.98;100.00;99158.63;4804696;29;20058;-72
2023/12/31 08:05:34;;;;;;;5.30;4.80;;;10.80;99.90;;;10.93;100.00;99163.22;4818891;29;20057;-72
2023/12/31 08:08:05;;;;;;;5.07;4.57;;;10.80;99.90;;;10.85;100.00;99160.81;4804750;29;20475;-72
2023/12/31 08:10:35;;;;;;;4.95;4.47;;;10.70;99.90;;;10.84;100.00;99199.63;4803243;29;20058;-73
2023/12/31 08:13:04;;;;;;;4.90;3.72;;;10.70;99.90;;;10.82;100.00;99139.75;4804442;29;20485;-72
2023/12/31 08:15:33;;;;;;;4.30;3.80;;;10.60;99.90;;;10.79;100.00;99140.72;4804606;29;20051;-72
2023/12/31 08:18:02;;;;;;;4.32;3.92;;;10.60;99.90;;;10.78;100.00;99159.31;4804488;29;20050;-79
2023/12/31 08:20:33;;;;;;;4.47;3.50;;;10.60;99.90;;;10.66;100.00;99160.56;4819488;29;20082;-83
2023/12/31 08:23:02;;;;;;;3.50;3.20;;;10.50;99.90;;;10.15;100.00;99075.00;4805036;29;20047;-78
2023/12/31 08:25:31;;;;;;;4.38;3.58;;;10.40;99.90;;;10.68;100.00;99174.56;4805470;29;20134;-76
2023/12/31 08:28:01;;;;;;;4.78;3.40;;;10.50;99.90;;;10.70;100.00;99166.63;4804613;29;20399;-77
2023/12/31 08:30:29;;;;;;;6.53;3.40;;;10.50;99.90;;;10.75;100.00;99159.38;4804824;29;20059;-83
2023/12/31 08:32:59;;;;;;;3.50;3.20;;;10.50;99.90;;;10.62;100.00;99152.78;4819053;29;20066;-81
2023/12/31 08:35:29;;;;;;;4.78;3.78;;;10.50;99.90;;;10.70;100.00;99175.38;4804771;29;20075;-76
2023/12/31 08:37:57;;;;;;;5.72;3.72;;;10.50;99.90;;;10.49;100.00;99144.34;4804474;29;20387;-79
2023/12/31 08:40:26;;;;;;;6.68;3.78;;;10.40;99.90;;;10.56;100.00;99167.06;4818819;29;20111;-87
2023/12/31 08:42:54;;;;;;;6.40;4.00;;;10.40;99.90;;;10.50;100.00;99167.25;4805797;29;20129;-79
2023/12/31 08:45:24;;;;;;;7.15;4.43;;;10.40;99.90;;;10.49;100.00;99167.28;4804656;29;20046;-76
2023/12/31 08:47:53;;;;;;;8.23;4.18;;;10.40;99.90;;;10.66;100.00;99183.47;4804693;29;20053;-74
2023/12/31 08:50:22;;;;;;;6.65;3.92;;;10.50;99.90;;;10.63;100.00;99171.22;4819029;29;20162;-75
2023/12/31 08:52:50;;;;;;;5.88;3.88;;;10.40;99.90;;;10.72;100.00;99175.34;4804855;29;20054;-77
2023/12/31 08:55:19;;;;;;;8.23;4.32;;;10.50;99.90;;;10.68;100.00;99176.38;4804570;29;20050;-88
2023/12/31 08:57:48;;;;;;;5.57;3.67;;;10.40;99.90;;;10.32;100.00;99108.78;4818846;29;20047;-78
2023/12/31 09:00:18;;;;;;;6.75;3.75;;;10.50;99.90;;;10.74;100.00;99206.09;4818308;29;20061;-75
2023/12/31 09:02:48;;;;;;;8.60;4.10;;;10.50;99.90;;;10.73;100.00;99177.94;4804515;29;20059;-79
2023/12/31 09:05:17;;;;;;;5.28;3.92;;;10.50;99.90;;;10.71;100.00;99189.47;4804113;29;20049;-70
2023/12/31 09:07:46;;;;;;;8.18;4.00;;;10.50;99.90;;;10.73;100.00;99179.72;4817866;29;20082;-70
2023/12/31 09:10:14;;;;;;;4.22;3.80;;;10.50;99.90;;;10.63;100.00;99165.06;4804182;29;20128;-71
2023/12/31 09:12:43;;;;;;;5.10;3.50;;;10.50;99.90;;;10.68;100.00;99201.00;4803918;29;20081;-71
2023/12/31 09:15:12;;;;;;;6.53;3.95;;;10.50;99.90;;;10.79;100.00;99198.91;4818169;29;20046;-74
2023/12/31 09:17:40;;;;;;;6.50;3.50;;;10.50;99.90;;;10.84;100.00;99169.66;4821272;29;20043;-77
2023/12/31 09:20:11;;;;;;;7.57;4.05;;;10.60;99.90;;;10.89;100.00;99165.97;4807384;29;20043;-76
2023/12/31 09:22:40;;;;;;;4.80;3.78;;;10.70;99.90;;;10.86;99.52;99208.38;4821458;29;20455;-76
2023/12/31 09:25:09;;;;;;;4.45;3.78;;;10.60;99.90;;;10.69;98.94;99135.78;4807265;29;20053;-75
2023/12/31 09:27:37;;;;;;;6.50;3.65;;;10.60;99.90;;;10.21;98.84;99058.09;4807244;29;20062;-75
2023/12/31 09:30:08;;;;;;;6.55;3.67;;;10.60;99.90;;;10.85;98.16;99158.16;4807093;29;20529;-78
2023/12/31 09:32:36;;;;;;;;;;;10.60;99.90;;;10.89;97.50;99189.78;4807800;29;20127;-78
2023/12/31 09:35:06;;;;;;;6.53;3.65;;;10.70;99.90;;;10.88;97.00;99155.41;4821125;29;19928;-79
2023/12/31 09:37:36;;;;;;;4.85;3.65;;;10.70;99.90;;;10.89;96.48;99176.53;4807096;29;20073;-76
2023/12/31 09:40:22;;;;;;;3.72;3.42;;;10.70;99.90;;;10.90;95.82;99182.69;4821417;29;20082;-78
2023/12/31 09:42:51;;;;;;;6.50;3.63;;;10.70;99.90;;;10.68;95.30;99147.28;4807118;29;20637;-78
2023/12/31 09:45:22;;;;;;;4.28;3.80;;;10.70;99.90;;;10.99;95.13;99187.69;4807270;29;20074;-76
2023/12/31 09:47:53;;;;;;;7.45;3.83;;;10.70;99.90;;;10.97;96.04;99186.00;4807138;29;20042;-77
2023/12/31 09:50:24;;;;;;;6.78;3.92;;;10.70;99.90;;;10.95;96.07;99199.28;4821033;29;20497;-78
2023/12/31 09:52:57;;;;;;;6.75;4.22;;;10.70;99.90;;;10.96;95.82;99177.19;4807059;29;20163;-78
2023/12/31 09:55:27;;;;;;;;;;;10.70;99.90;;;10.97;95.39;99167.47;4807443;29;20046;-77
2023/12/31 09:57:57;;;;;;;5.20;3.60;;;10.80;99.90;;;11.01;95.38;99183.22;4806937;29;20028;-76
2023/12/31 10:00:25;;;;;;;3.47;3.20;;;10.80;99.90;;;11.08;95.75;99192.66;4807271;29;20092;-77
2023/12/31 10:02:54;;;;;;;4.80;3.58;;;10.80;99.90;;;11.10;96.19;99182.00;4807044;29;20129;-78
2023/12/31 10:05:25;;;;;;;4.80;3.60;;;10.90;99.90;;;11.24;96.80;99193.88;4807421;29;20135;-78
2023/12/31 10:07:54;;;;;;;;;;;11.00;99.90;;;11.16;97.67;99195.91;4821248;29;20051;-75
2023/12/31 10:10:25;;;;;;;4.60;3.47;;;11.00;99.90;;;11.08;99.25;99160.91;4806629;29;19925;-78
2023/12/31 10:12:53;;;;;;;4.85;3.55;;;10.90;99.90;;;11.01;100.00;99180.56;4806809;29;20046;-75
2023/12/31 10:15:21;;;;;;;7.97;3.83;;;10.80;99.90;;;11.08;100.00;99189.13;4806593;29;20404;-77
2023/12/31 10:17:51;;;;;;;4.22;3.70;;;10.80;99.90;;;11.06;100.00;99170.69;4807065;29;20107;-78
2023/12/31 10:20:21;;;;;;;5.00;3.67;;;10.80;99.90;;;10.87;100.00;99204.81;4821273;29;20117;-78
2023/12/31 10:22:50;;;;;;;5.30;3.60;;;10.70;99.90;;;10.85;100.00;99187.25;4806799;29;20098;-77
2023/12/31 10:25:20;;;;;;;4.32;3.70;;;10.60;99.90;;;10.80;100.00;99165.41;4806611;29;20079;-76